Friday, October 24, 2014
21:27 UTC
  |  Log In   |  Register Free
Airport Search:

Rwj Airpark Airport
(54T)

Rwj Airpark Airport Diagram
No Airport Diagram Available

FAA data valid effective September 18, 2014 - November 13, 2014 (unless otherwise noted).

 
 
 
 
 
 
 
 
 
 
 
 
 
 

Current Aviation Weather for Rwj Airpark Airport (54T)

METAR data is unavailable for 54T. The nearest METAR location is at KEFD (18.7 nm SW from 54T).

The most recent METAR observation for KEFD was updated at: 2109
METAR Summary (Translated METAR)
KEFD
242050Z 03003KT 10SM CLR 25/10 A3010
(18.7 nm SW from 54T)
KHOU
242053Z 03005KT 10SM CLR 27/12 A3008 RMK AO2 SLP190 T02670117 56023
(23.6 nm SW from 54T)
TAF Summary (Translated TAF)
KEFD
2420/2602 01006KT 9999 SKC QNH3007INS TX25/2420Z TN15/2510Z
KHOU
(6.7 nm NW from KEFD)
242040Z 2421/2518 03006KT P6SM SKC
  Airport Weather Conditions for 54T

Current weather conditions are
not available for 54T


The nearest NOAA weather station
is at EFD, (18.7 nm SW from 54T)
  
 Current Weather at EFD
77° F
Fair
North winds at 4.6 mph
EFD NOAA Radar

Pressure: 30.12 in
Humidity: 39%
Wind: North at 4.6 MPH (4 KT)
Dew Point: 50.0°F
Visibility: 10.00 mi


Airport Weather Forecast for 54T

Translated METAR and TAF for KEFD
Translated METAR for KEFD (2122 UTC 24 October 2014)
found at http://aviationweather.gov/adds/metars/
 
METAR text: KEFD 242050Z 03003KT 10SM CLR 25/10 A3010
Conditions at: KEFD (HOUSTON/ELLINGTO, TX, US) observed 2050 UTC 24 October 2014
Temperature: 25.0°C (77°F)
Dewpoint: 10.0°C (50°F) [RH = 39%]
Pressure (altimeter): 30.10 inches Hg (1019.4 mb)
Winds: from the NNE (30 degrees) at 3 MPH (3 knots; 1.6 m/s)
Visibility: 10 or more miles (16+ km)
Ceiling: at least 12,000 feet AGL
Clouds: sky clear below 12,000 feet AGL
Weather: no significant weather observed at this time
Translated TAF for KEFD
Forecast for: KEFD (HOUSTON/ELLINGTO, TX, US)
TAF Text: TAF KEFD 2420/2602 01006KT 9999 SKC QNH3007INS TX25/2420Z TN15/2510Z
Forecast period: 2000 UTC 24 October 2014 to 0200 UTC 26 October 2014
Forecast type: FROM: standard forecast or significant change
Winds: from the N (10 degrees) at 7 MPH (6 knots; 3.1 m/s)
Visibility: 6 or more miles (10+ km)
Clouds: clear skies
Weather: no significant weather forecast for this period

Find All Airport Services Find A Hotel Find A Rental Car Find A Golf Course Find A Restaurant $100 Hamburger



FBO's on the Field
FBO Company Facility Photos Services Transportation Aviation Fuel Prices: Prices include tax
Catering Weather Repair Courtesy Rental Type 100LL JetA JetA+ MOGAS 8087
 
Bay Area Aviation Inc

This FBO has not yet been rated
FS:Avfuel
Last Updated: Sep-25
Login to update fuel prices
SS:
Contact Bay Area Aviation IncMore FBO Information
 
Add another FBO Facility Photos Catering Weather Repair Courtesy Rental Type 100LL JetA JetA+ MOGAS 8087
Services Transportation Aviation Fuel Prices: Prices include tax


model-print
model-print
model-print
model-print